CGT weather

Chinguetti Airport
Chinguetti, Adrar Region, Mauritania

Public forecast

Using degrees Celsius for public forecast. Weather courtesy of forecast.io.

Closest aviation weather report (METAR) to Chinguetti Airport

Report is more than 2 hours old.

Closest report is Atar International Airport, 36.3 nm (67.2 km) W. Retrieved 2019/12/10 18:00 UTC (3 hours ago):

GQPA 101800Z 06008KT 5000 DU NSC 27/03 Q1017

Closest aviation forecast (TAF) to Chinguetti Airport

Closest forecast is Nouakchott–Oumtounsy International Airport, 241.4 nm (447.1 km) WSW. Retrieved 2019/12/10 18:00 UTC (3 hours ago):

TAF COR GQNO 101700Z 1018/1124 03010KT 4000 BLDU NSC BECMG 1019/1022 6000 NSW BECMG 1107/1110 09018KT 2000 BLDU BECMG 1116/1119 03012KT 6000 NSW